Time;durP1;ratioP1;P1;durP2;ratioP2;P2;SDS_P1;SDS_P2;PMS_P1;PMS_P2;Temp;Humidity;BMP_temperature;BMP_pressure;BME280_temperature;BME280_humidity;BME280_pressure;Samples;Min_cycle;Max_cycle;Signal;HPM_P1;HPM_P2
2024/04/02 00:02:17;;;;;;;2.10;1.10;;;6.10;99.90;;;6.83;100.00;96995.69;4992144;28;21010;-77
2024/04/02 00:04:45;;;;;;;3.17;1.23;;;6.00;99.90;;;6.87;100.00;97000.28;4997151;28;20474;-76
2024/04/02 00:07:12;;;;;;;1.53;1.20;;;6.10;99.90;;;6.88;100.00;97001.91;5001826;28;20464;-77
2024/04/02 00:09:39;;;;;;;4.53;1.30;;;6.20;99.90;;;6.90;100.00;97004.31;5002321;28;20950;-76
2024/04/02 00:12:07;;;;;;;1.03;0.90;;;6.10;99.90;;;6.81;100.00;97001.06;5014478;28;20515;-76
2024/04/02 00:14:34;;;;;;;3.93;1.00;;;6.00;99.90;;;6.86;100.00;96995.28;5003334;28;20456;-76
2024/04/02 00:17:02;;;;;;;4.77;1.40;;;6.20;99.90;;;6.86;100.00;97008.28;5000534;28;21028;-76
2024/04/02 00:19:28;;;;;;;3.70;0.97;;;6.10;99.90;;;6.87;100.00;97008.06;4996662;28;20501;-76
2024/04/02 00:21:57;;;;;;;3.50;1.10;;;6.10;99.90;;;6.86;100.00;97013.47;5013357;28;20561;-76
2024/04/02 00:24:23;;;;;;;1.00;0.90;;;6.20;99.90;;;6.89;100.00;97006.13;5001703;28;20473;-76
2024/04/02 00:26:51;;;;;;;1.00;0.90;;;6.20;99.90;;;6.92;100.00;97004.91;5004073;28;20470;-76
2024/04/02 00:29:19;;;;;;;1.83;1.10;;;6.20;99.90;;;6.99;100.00;97006.59;4994875;28;20466;-76
2024/04/02 00:31:46;;;;;;;1.20;1.10;;;6.30;99.90;;;6.97;100.00;97010.38;5002526;28;20484;-76
2024/04/02 00:34:13;;;;;;;4.87;2.03;;;6.30;99.90;;;7.00;100.00;97020.38;4999661;28;20991;-77
2024/04/02 00:36:40;;;;;;;1.10;1.03;;;6.30;99.90;;;7.01;100.00;97020.19;5017533;28;20477;-75
2024/04/02 00:39:08;;;;;;;9.30;1.40;;;6.30;99.90;;;6.95;100.00;97025.31;5000898;28;20468;-76
2024/04/02 00:41:37;;;;;;;4.93;1.57;;;6.30;99.90;;;6.97;100.00;97028.56;4998247;28;20498;-76
2024/04/02 00:44:03;;;;;;;2.93;1.30;;;6.40;99.90;;;7.07;100.00;97029.03;5002013;28;20478;-76
2024/04/02 00:46:30;;;;;;;1.70;1.00;;;6.40;99.90;;;7.14;100.00;97032.47;5002983;28;20728;-76
2024/04/02 00:48:57;;;;;;;2.87;1.17;;;6.40;99.90;;;7.22;100.00;97036.72;5014135;28;20480;-77
2024/04/02 00:51:25;;;;;;;3.47;1.10;;;6.50;99.90;;;7.25;100.00;97037.16;4997501;28;20480;-76
2024/04/02 00:53:51;;;;;;;2.00;1.10;;;6.50;99.90;;;7.32;100.00;97048.38;5006538;28;20480;-76
2024/04/02 00:56:21;;;;;;;1.53;1.07;;;6.50;99.90;;;7.33;100.00;97044.78;5005900;28;20474;-76
2024/04/02 00:58:48;;;;;;;1.67;1.27;;;6.60;99.90;;;7.38;100.00;97039.00;4999863;28;20812;-76
2024/04/02 01:01:15;;;;;;;1.23;1.13;;;6.60;99.90;;;7.42;100.00;97038.44;5004888;28;21021;-76
2024/04/02 01:03:42;;;;;;;1.23;1.00;;;6.70;99.90;;;7.38;100.00;97033.81;5000818;28;20473;-76
2024/04/02 01:06:09;;;;;;;2.10;1.00;;;6.70;99.90;;;7.41;100.00;97033.41;5018210;28;20476;-76
2024/04/02 01:08:36;;;;;;;1.60;1.10;;;6.70;99.90;;;7.40;100.00;97040.41;5004520;28;20478;-76
2024/04/02 01:11:04;;;;;;;1.97;1.10;;;6.70;99.90;;;7.40;100.00;97040.41;5000761;28;20473;-76
2024/04/02 01:13:34;;;;;;;3.07;1.20;;;6.70;99.90;;;7.36;100.00;97041.78;4999423;28;20469;-77
2024/04/02 01:16:04;;;;;;;1.87;1.03;;;6.60;99.90;;;7.46;100.00;97044.84;5006361;28;20476;-76
2024/04/02 01:18:31;;;;;;;1.63;1.00;;;6.70;99.90;;;7.51;100.00;97050.28;5003776;28;20476;-76
2024/04/02 01:20:58;;;;;;;8.47;1.53;;;6.80;99.90;;;7.56;100.00;97040.13;5016310;28;20500;-76
2024/04/02 01:23:25;;;;;;;3.67;1.20;;;6.90;99.90;;;7.57;100.00;97031.31;4998944;28;20463;-75
2024/04/02 01:25:54;;;;;;;2.07;1.40;;;7.00;99.90;;;7.66;100.00;97044.16;5004646;28;20466;-75
2024/04/02 01:28:20;;;;;;;3.13;1.10;;;7.00;99.90;;;7.69;100.00;97044.56;5002652;28;20796;-76
2024/04/02 01:30:48;;;;;;;1.43;1.00;;;7.10;99.90;;;7.71;100.00;97041.75;5002695;28;20466;-76
2024/04/02 01:33:14;;;;;;;2.77;1.27;;;7.20;99.90;;;7.75;100.00;97042.97;5003732;28;20481;-76
2024/04/02 01:35:42;;;;;;;3.43;0.90;;;7.20;99.90;;;7.77;100.00;97030.59;5006779;28;20470;-75
2024/04/02 01:38:08;;;;;;;1.73;1.10;;;7.30;99.90;;;7.81;100.00;97037.03;5002652;28;20473;-76
2024/04/02 01:40:35;;;;;;;1.17;0.90;;;7.30;99.90;;;7.83;100.00;97050.63;5006150;28;20469;-76
2024/04/02 01:43:04;;;;;;;1.97;1.00;;;7.30;99.90;;;7.85;100.00;97048.63;5000493;28;20784;-77
2024/04/02 01:45:31;;;;;;;1.00;0.90;;;7.30;99.90;;;7.90;100.00;97046.25;4998748;28;20473;-77
2024/04/02 01:47:58;;;;;;;1.33;1.07;;;7.30;99.90;;;7.93;100.00;97056.28;5003529;28;20483;-76
2024/04/02 01:50:25;;;;;;;3.20;1.00;;;7.40;99.90;;;7.92;100.00;97059.88;5015409;28;20975;-76
2024/04/02 01:52:52;;;;;;;1.70;1.10;;;7.40;99.90;;;7.94;100.00;97058.69;5017723;28;20856;-76
2024/04/02 01:55:19;;;;;;;3.07;0.90;;;7.40;99.90;;;8.01;100.00;97061.31;5002859;28;20470;-76
2024/04/02 01:57:46;;;;;;;2.70;1.20;;;7.40;99.90;;;8.04;100.00;97073.94;5002041;28;20478;-77
2024/04/02 02:00:16;;;;;;;1.30;1.10;;;7.40;99.90;;;8.08;100.00;97069.97;5001072;28;20470;-77
2024/04/02 02:02:42;;;;;;;2.00;1.20;;;7.40;99.90;;;8.08;100.00;97069.97;5003092;28;20501;-76
2024/04/02 02:05:09;;;;;;;1.93;1.20;;;7.50;99.90;;;8.11;100.00;97077.38;5001832;28;20969;-76
2024/04/02 02:07:36;;;;;;;1.93;1.10;;;7.60;99.90;;;8.07;100.00;97070.94;5003610;28;20481;-76
2024/04/02 02:10:04;;;;;;;1.30;1.20;;;7.60;99.90;;;8.09;100.00;97074.16;5000343;28;20462;-76
2024/04/02 02:12:31;;;;;;;2.83;1.00;;;7.60;99.90;;;8.14;100.00;97076.97;5002451;28;20477;-77
2024/04/02 02:14:59;;;;;;;2.33;1.33;;;7.60;99.90;;;8.15;100.00;97078.59;4999415;28;20492;-77
2024/04/02 02:17:27;;;;;;;1.20;1.10;;;7.60;99.90;;;8.17;100.00;97079.19;5015055;28;20474;-76
2024/04/02 02:19:54;;;;;;;1.83;1.10;;;7.60;99.90;;;8.21;100.00;97085.63;4998837;28;20931;-76
2024/04/02 02:22:20;;;;;;;1.90;1.10;;;7.60;99.90;;;8.20;100.00;97084.00;5002605;28;20541;-76
2024/04/02 02:24:48;;;;;;;1.20;1.10;;;7.70;99.90;;;8.25;100.00;97094.66;5002516;28;20956;-77
2024/04/02 02:27:14;;;;;;;3.73;1.10;;;7.70;99.90;;;8.26;100.00;97092.84;5003684;28;20477;-77
2024/04/02 02:29:42;;;;;;;1.10;1.00;;;7.70;99.90;;;8.27;100.00;97084.84;4998681;28;20458;-77
2024/04/02 02:32:08;;;;;;;1.90;1.10;;;7.70;99.90;;;8.30;100.00;97088.88;5002478;28;20501;-76
2024/04/02 02:34:37;;;;;;;2.17;1.07;;;7.70;99.90;;;8.31;100.00;97093.91;4997155;28;20991;-77
2024/04/02 02:37:03;;;;;;;16.33;1.50;;;7.70;99.90;;;8.36;100.00;97091.50;5013175;28;20478;-77
2024/04/02 02:39:31;;;;;;;1.53;1.13;;;7.80;99.90;;;8.35;100.00;97089.09;5017166;28;20473;-77
2024/04/02 02:41:57;;;;;;;0.93;0.90;;;7.80;99.90;;;8.36;100.00;97093.31;4999377;28;20607;-76
2024/04/02 02:44:25;;;;;;;0.80;0.70;;;7.80;99.90;;;8.37;100.00;97090.50;4999206;28;20517;-76
2024/04/02 02:46:51;;;;;;;2.70;1.07;;;7.70;99.90;;;8.34;100.00;97090.88;5003604;28;20482;-76
2024/04/02 02:49:18;;;;;;;1.37;0.97;;;7.80;99.90;;;8.36;100.00;97094.13;4999330;28;20467;-75
2024/04/02 02:51:46;;;;;;;1.77;0.93;;;7.70;99.90;;;8.36;100.00;97096.72;5002958;28;20552;-76
2024/04/02 02:54:14;;;;;;;1.20;0.80;;;7.80;99.90;;;8.38;100.00;97097.31;5002344;28;20848;-76
2024/04/02 02:56:40;;;;;;;1.27;0.80;;;7.80;99.90;;;8.40;100.00;97105.72;5016714;28;20463;-77
2024/04/02 02:59:08;;;;;;;0.83;0.77;;;7.80;99.90;;;8.40;100.00;97100.53;4998341;28;20474;-76
2024/04/02 03:01:34;;;;;;;2.40;1.00;;;7.80;99.90;;;8.42;100.00;97108.97;5001635;28;20509;-77
2024/04/02 03:04:02;;;;;;;1.40;1.03;;;7.80;99.90;;;8.41;100.00;97107.34;5002429;28;20924;-76
2024/04/02 03:06:28;;;;;;;1.10;0.90;;;7.90;99.90;;;8.41;100.00;97109.13;5002792;28;20477;-75
2024/04/02 03:08:57;;;;;;;2.93;1.10;;;7.90;99.90;;;8.43;100.00;97113.19;5003753;28;20482;-76
2024/04/02 03:11:24;;;;;;;3.33;1.10;;;7.90;99.90;;;8.40;100.00;97112.75;5003132;28;20487;-76
2024/04/02 03:13:51;;;;;;;0.73;0.73;;;7.80;99.90;;;8.41;100.00;97107.34;4999410;28;20844;-76
2024/04/02 03:16:21;;;;;;;1.43;1.10;;;7.80;99.90;;;8.40;100.00;97105.72;5012391;28;20467;-76
2024/04/02 03:18:48;;;;;;;1.63;1.00;;;7.80;99.90;;;8.40;100.00;97110.94;4999036;28;20959;-76
2024/04/02 03:21:15;;;;;;;2.13;0.90;;;7.90;99.90;;;8.36;100.00;97114.97;4995774;28;20583;-76
2024/04/02 03:23:43;;;;;;;1.47;1.00;;;7.90;99.90;;;8.36;100.00;97120.16;4999013;28;20890;-76
2024/04/02 03:26:11;;;;;;;1.63;1.00;;;7.90;99.90;;;8.36;100.00;97125.38;4997589;28;20473;-76
2024/04/02 03:28:39;;;;;;;1.10;0.90;;;7.80;99.90;;;8.33;100.00;97117.94;4996098;28;20469;-76
2024/04/02 03:31:06;;;;;;;3.90;1.20;;;7.90;99.90;;;8.35;100.00;97122.94;4996066;28;20498;-77
2024/04/02 03:33:33;;;;;;;1.20;1.07;;;7.80;99.90;;;8.38;100.00;97125.97;5001164;28;20466;-77
2024/04/02 03:36:02;;;;;;;4.33;1.20;;;7.80;99.90;;;8.42;100.00;97132.41;5016904;28;20480;-77
2024/04/02 03:38:30;;;;;;;5.03;1.10;;;7.80;99.90;;;8.44;100.00;97130.38;5002638;28;20480;-77
2024/04/02 03:41:09;;;;;;;0.90;0.80;;;7.90;99.90;;;8.44;100.00;97133.00;5017548;28;20477;-76
2024/04/02 03:43:38;;;;;;;2.50;0.93;;;7.90;99.90;;;8.45;100.00;97126.00;4999249;28;20971;-77
2024/04/02 03:46:07;;;;;;;1.33;0.87;;;7.80;99.90;;;8.45;100.00;97137.22;5000081;28;20480;-77
2024/04/02 03:48:34;;;;;;;2.40;1.20;;;7.90;99.90;;;8.46;100.00;97136.22;5002011;28;21055;-76
2024/04/02 03:51:02;;;;;;;1.40;1.30;;;7.90;99.90;;;8.48;100.00;97139.44;5003138;28;20478;-77
2024/04/02 03:53:28;;;;;;;6.00;1.33;;;7.90;99.90;;;8.43;100.00;97131.41;5016706;28;20559;-77
2024/04/02 03:56:00;;;;;;;1.40;1.10;;;7.90;99.90;;;8.48;100.00;97139.44;5001685;28;20475;-77
2024/04/02 03:58:27;;;;;;;1.00;0.80;;;7.80;99.90;;;8.52;100.00;97145.84;5003218;28;20451;-79
2024/04/02 04:00:57;;;;;;;23.73;9.83;;;7.90;99.90;;;8.52;100.00;97150.25;4999944;28;20549;-82
2024/04/02 04:03:25;;;;;;;7.37;2.73;;;7.90;99.90;;;8.52;100.00;97145.03;4998385;28;20467;-81
2024/04/02 04:05:58;;;;;;;2.10;1.00;;;7.90;99.90;;;8.54;100.00;97143.03;5012649;28;20479;-81
2024/04/02 04:08:26;;;;;;;1.47;1.10;;;7.90;99.90;;;8.57;100.00;97153.88;4998581;28;20479;-80
2024/04/02 04:10:54;;;;;;;2.00;1.20;;;8.00;99.90;;;8.56;100.00;97151.47;4993682;28;20482;-81
2024/04/02 04:13:21;;;;;;;1.70;0.97;;;8.00;99.90;;;8.51;100.00;97159.88;4996537;28;20531;-84
2024/04/02 04:15:53;;;;;;;4.90;1.10;;;8.00;99.90;;;8.43;100.00;97160.06;5014289;28;20478;-81
2024/04/02 04:18:21;;;;;;;1.73;1.07;;;7.90;99.90;;;8.50;100.00;97168.69;4998299;28;20484;-81
2024/04/02 04:20:53;;;;;;;1.20;1.10;;;7.90;99.90;;;8.50;100.00;97160.88;5012910;28;20461;-82
2024/04/02 04:23:19;;;;;;;1.30;1.10;;;7.80;99.90;;;8.56;100.00;97161.91;5001801;28;20509;-80
2024/04/02 04:25:47;;;;;;;1.83;0.90;;;7.90;99.90;;;8.56;100.00;97170.53;5002306;28;20458;-80
2024/04/02 04:28:14;;;;;;;8.80;1.00;;;7.90;99.90;;;8.55;100.00;97171.50;5006986;28;20458;-80
2024/04/02 04:30:41;;;;;;;2.60;0.90;;;8.00;99.90;;;8.59;100.00;97175.34;5010383;28;21016;-80
2024/04/02 04:33:07;;;;;;;3.80;1.10;;;8.00;99.90;;;8.58;100.00;97175.53;5004272;28;20525;-79
2024/04/02 04:35:42;;;;;;;0.90;0.80;;;8.00;99.90;;;8.55;100.00;97181.94;5004912;28;20564;-80
2024/04/02 04:38:09;;;;;;;2.50;1.00;;;8.00;99.90;;;8.58;100.00;97178.94;5017689;28;20906;-80
2024/04/02 04:40:36;;;;;;;5.47;1.00;;;8.00;99.90;;;8.57;100.00;97185.13;5018371;28;20980;-80
2024/04/02 04:43:03;;;;;;;7.30;1.20;;;8.00;99.90;;;8.53;100.00;97189.16;5002162;28;20489;-80
2024/04/02 04:45:30;;;;;;;1.93;1.00;;;7.90;99.90;;;8.55;100.00;97181.94;5000992;28;20494;-80
2024/04/02 04:47:58;;;;;;;4.03;0.90;;;7.90;99.90;;;8.53;100.00;97186.56;4998258;28;20471;-80
2024/04/02 04:50:26;;;;;;;1.43;0.90;;;7.90;99.90;;;8.52;100.00;97192.75;5004769;28;20504;-81
2024/04/02 04:52:54;;;;;;;2.30;0.97;;;7.90;99.90;;;8.55;100.00;97194.16;5000281;28;21093;-80
2024/04/02 04:55:22;;;;;;;1.60;1.30;;;7.90;99.90;;;8.55;100.00;97208.00;5003554;28;20466;-80
2024/04/02 04:57:48;;;;;;;3.53;0.90;;;8.00;99.90;;;8.56;100.00;97208.81;5005928;28;22287;-80
2024/04/02 05:00:16;;;;;;;0.70;0.70;;;8.00;99.90;;;8.52;100.00;97210.19;5003451;28;20477;-80
2024/04/02 05:02:42;;;;;;;1.07;0.83;;;7.90;99.90;;;8.54;100.00;97210.78;5005647;28;20495;-80
2024/04/02 05:05:10;;;;;;;1.30;0.90;;;7.90;99.90;;;8.54;100.00;97216.78;5006658;28;20485;-80
2024/04/02 05:07:36;;;;;;;3.80;1.20;;;8.00;99.90;;;8.56;100.00;97214.00;5003143;28;20494;-80
2024/04/02 05:10:08;;;;;;;1.90;1.10;;;8.00;99.90;;;8.56;100.00;97216.63;5003747;28;20466;-80
2024/04/02 05:12:34;;;;;;;1.80;0.90;;;8.10;99.90;;;8.55;100.00;97223.63;5005933;28;20466;-80
2024/04/02 05:15:02;;;;;;;0.83;0.83;;;7.90;99.90;;;8.54;100.00;97232.44;5001888;28;20466;-80
2024/04/02 05:17:31;;;;;;;2.83;1.10;;;8.00;99.90;;;8.54;100.00;97231.63;5004929;28;20474;-80
2024/04/02 05:19:59;;;;;;;2.20;0.90;;;8.00;99.90;;;8.55;100.00;97234.06;5000692;28;20960;-81
2024/04/02 05:22:26;;;;;;;1.00;0.90;;;8.00;99.90;;;8.57;100.00;97229.44;5000156;28;20510;-80
2024/04/02 05:24:53;;;;;;;1.90;1.20;;;8.00;99.90;;;8.62;100.00;97235.88;5000219;28;20470;-80
2024/04/02 05:27:21;;;;;;;2.13;1.10;;;8.00;99.90;;;8.57;100.00;97237.25;4998675;28;20481;-81
2024/04/02 05:29:49;;;;;;;3.70;1.53;;;8.00;99.90;;;8.64;100.00;97236.50;4996328;28;20474;-81
2024/04/02 05:32:15;;;;;;;1.97;1.00;;;8.00;99.90;;;8.65;100.00;97243.28;5000401;28;20912;-81
2024/04/02 05:34:42;;;;;;;5.03;1.30;;;7.90;99.90;;;8.63;100.00;97240.09;5001247;28;20494;-80
2024/04/02 05:37:09;;;;;;;4.57;1.53;;;8.00;99.90;;;8.64;100.00;97242.53;5013668;28;20494;-80
2024/04/02 05:39:36;;;;;;;4.43;1.43;;;8.00;99.90;;;8.62;100.00;97249.72;4999081;28;20461;-86
2024/04/02 05:42:03;;;;;;;7.23;2.63;;;8.10;99.90;;;8.67;100.00;97252.56;5002630;28;20495;-80
2024/04/02 05:44:32;;;;;;;5.90;1.67;;;8.10;99.90;;;8.65;100.00;97253.72;5001787;28;20847;-78
2024/04/02 05:46:58;;;;;;;4.20;1.53;;;8.20;99.90;;;8.62;100.00;97254.09;5000557;28;20470;-80
2024/04/02 05:49:26;;;;;;;4.83;1.30;;;8.10;99.90;;;8.57;100.00;97258.09;5000588;28;20811;-78
2024/04/02 05:51:52;;;;;;;7.43;1.50;;;8.20;99.90;;;8.62;100.00;97256.72;5001020;28;20582;-79
2024/04/02 05:54:19;;;;;;;15.87;1.77;;;8.20;99.90;;;8.66;100.00;97257.94;5001329;28;20470;-80
2024/04/02 05:56:46;;;;;;;7.63;1.50;;;8.10;99.90;;;8.59;100.00;97261.34;5004828;28;20833;-79
2024/04/02 05:59:13;;;;;;;4.50;1.40;;;8.20;99.90;;;8.64;100.00;97263.38;5002684;28;20467;-79
2024/04/02 06:01:42;;;;;;;12.20;1.50;;;8.10;99.90;;;8.68;100.00;97263.78;5002877;28;20857;-80
2024/04/02 06:04:09;;;;;;;5.70;1.47;;;8.10;99.90;;;8.62;100.00;97267.94;4999617;28;20486;-80
2024/04/02 06:06:36;;;;;;;5.47;2.37;;;8.10;99.90;;;8.62;100.00;97273.16;5003965;28;20479;-80
2024/04/02 06:09:03;;;;;;;5.83;1.43;;;8.00;99.90;;;8.70;100.00;97273.00;5005711;28;20524;-80
2024/04/02 06:11:29;;;;;;;6.90;2.00;;;8.00;99.90;;;8.77;100.00;97278.25;5001900;28;20549;-80
2024/04/02 06:13:57;;;;;;;4.20;1.83;;;8.10;99.90;;;8.78;100.00;97277.25;5000560;28;20479;-79
2024/04/02 06:16:24;;;;;;;5.10;1.27;;;8.20;99.90;;;8.80;100.00;97283.06;4997451;28;20475;-85
2024/04/02 06:18:52;;;;;;;6.33;1.70;;;8.20;99.90;;;8.81;100.00;97276.88;4994509;28;21104;-79
2024/04/02 06:21:19;;;;;;;6.90;2.10;;;8.20;99.90;;;8.76;100.00;97282.66;4997683;28;20502;-79
2024/04/02 06:23:47;;;;;;;2.87;1.43;;;8.20;99.90;;;8.81;100.00;97279.47;5000141;28;20501;-80
2024/04/02 06:26:16;;;;;;;2.10;1.47;;;8.30;99.90;;;8.83;100.00;97283.47;5000350;28;20476;-80
2024/04/02 06:28:44;;;;;;;5.73;1.30;;;8.30;99.90;;;8.82;100.00;97288.88;5003871;28;20467;-80
2024/04/02 06:31:11;;;;;;;1.40;1.20;;;8.20;99.90;;;8.82;100.00;97286.25;5001002;28;20920;-80
2024/04/02 06:33:39;;;;;;;4.20;1.27;;;8.20;99.90;;;8.82;100.00;97279.25;5017208;28;20892;-79
2024/04/02 06:36:07;;;;;;;3.83;1.30;;;8.30;99.90;;;8.83;100.00;97285.28;4999936;28;20996;-80
2024/04/02 06:38:35;;;;;;;2.00;1.10;;;8.40;99.90;;;8.83;100.00;97285.28;5016436;28;20834;-80
2024/04/02 06:41:01;;;;;;;3.10;1.30;;;8.40;99.90;;;8.91;100.00;97285.13;5005020;28;20471;-79
2024/04/02 06:43:29;;;;;;;3.17;1.33;;;8.40;99.90;;;8.93;100.00;97288.31;4997556;28;20487;-80
2024/04/02 06:45:56;;;;;;;3.33;1.10;;;8.30;99.90;;;8.97;100.00;97297.38;4995326;28;20978;-79
2024/04/02 06:48:24;;;;;;;8.60;1.50;;;8.40;99.90;;;8.99;100.00;97303.19;5010750;28;20480;-79
2024/04/02 06:50:57;;;;;;;7.63;1.50;;;8.50;99.90;;;9.00;100.00;97305.59;5013001;28;20846;-79
2024/04/02 06:53:26;;;;;;;6.87;1.67;;;8.50;99.90;;;9.03;100.00;97301.78;4998070;28;20796;-79
2024/04/02 06:55:53;;;;;;;5.97;1.60;;;8.50;99.90;;;9.06;100.00;97306.63;4997756;28;20506;-80
2024/04/02 06:58:21;;;;;;;5.23;1.97;;;8.50;99.90;;;8.98;100.00;97314.63;4998610;28;20475;-80
2024/04/02 07:00:48;;;;;;;5.00;1.50;;;8.50;99.90;;;9.00;100.00;97312.63;4996791;28;20467;-80
2024/04/02 07:03:18;;;;;;;6.47;1.93;;;8.60;99.90;;;8.99;100.00;97317.03;4998835;28;20499;-79
2024/04/02 07:05:46;;;;;;;10.77;1.90;;;8.50;99.90;;;9.05;100.00;97316.28;5011614;28;20474;-79
2024/04/02 07:08:14;;;;;;;9.20;1.73;;;8.50;99.90;;;8.98;100.00;97317.25;5001813;28;20459;-79
2024/04/02 07:10:45;;;;;;;7.20;1.40;;;8.50;99.90;;;9.03;100.00;97320.84;4996682;28;20471;-80
2024/04/02 07:13:13;;;;;;;4.67;1.80;;;8.50;99.90;;;9.06;100.00;97322.25;4999085;28;20510;-80
2024/04/02 07:15:41;;;;;;;5.17;1.33;;;8.50;99.90;;;9.04;100.00;97329.50;5012957;28;20916;-80
2024/04/02 07:18:09;;;;;;;9.03;1.87;;;8.50;99.90;;;9.06;100.00;97330.91;4999354;28;20820;-80
2024/04/02 07:20:36;;;;;;;3.37;2.10;;;8.50;99.90;;;9.03;100.00;97330.47;5013202;28;20471;-80
2024/04/02 07:23:03;;;;;;;1.70;1.50;;;8.50;99.90;;;9.04;100.00;97334.69;5012776;28;20493;-79
2024/04/02 07:25:30;;;;;;;1.93;1.53;;;8.50;99.90;;;9.05;100.00;97331.91;4997592;28;20472;-80
2024/04/02 07:27:58;;;;;;;6.80;1.30;;;8.40;99.90;;;9.12;100.00;97339.75;4993693;28;20471;-80
2024/04/02 07:30:25;;;;;;;5.13;1.90;;;8.50;99.90;;;9.12;100.00;97333.72;4996417;28;20511;-79
2024/04/02 07:32:52;;;;;;;7.83;1.30;;;8.60;99.90;;;9.11;100.00;97338.16;4998480;28;20476;-80
2024/04/02 07:35:19;;;;;;;3.77;1.40;;;8.50;99.90;;;9.12;100.00;97344.97;4999318;28;20484;-80
2024/04/02 07:37:46;;;;;;;4.83;2.13;;;8.50;99.90;;;9.10;100.00;97354.78;4996016;28;20991;-80
2024/04/02 07:40:15;;;;;;;6.60;2.43;;;8.60;99.90;;;9.12;100.00;97349.38;5019439;28;20495;-79
2024/04/02 07:42:42;;;;;;;7.40;2.63;;;8.60;99.90;;;9.06;100.00;97356.16;4995335;28;20502;-80
2024/04/02 07:45:10;;;;;;;6.70;1.60;;;8.60;99.90;;;9.06;100.00;97353.56;4999353;28;20486;-78
2024/04/02 07:47:38;;;;;;;9.40;2.00;;;8.60;99.90;;;9.00;100.00;97369.97;5006636;28;20471;-78
2024/04/02 07:50:05;;;;;;;7.77;1.70;;;8.60;99.90;;;9.08;100.00;97362.81;5006985;28;20829;-78
2024/04/02 07:52:33;;;;;;;8.20;2.07;;;8.60;99.90;;;9.14;100.00;97371.66;5009001;28;20497;-78
2024/04/02 07:55:00;;;;;;;10.83;1.90;;;8.60;99.90;;;9.17;100.00;97363.44;5021857;28;20478;-78
2024/04/02 07:57:27;;;;;;;10.33;1.67;;;8.70;99.90;;;9.20;100.00;97373.47;5002700;28;20472;-77
2024/04/02 07:59:54;;;;;;;7.80;1.50;;;8.70;99.90;;;9.13;100.00;97372.66;5003156;28;20480;-78
2024/04/02 08:02:23;;;;;;;6.03;2.47;;;8.60;99.90;;;9.16;100.00;97376.69;5009870;28;21314;-78
2024/04/02 08:04:52;;;;;;;10.43;1.47;;;8.60;99.90;;;9.20;100.00;97367.47;5005961;28;20479;-78
2024/04/02 08:07:21;;;;;;;5.60;1.60;;;8.60;99.90;;;9.20;100.00;97376.09;5011042;28;21139;-78
2024/04/02 08:09:48;;;;;;;2.70;1.30;;;8.70;99.90;;;9.19;100.00;97379.72;5008376;28;20477;-78
2024/04/02 08:12:15;;;;;;;10.07;2.20;;;8.70;99.90;;;9.26;100.00;97385.75;5008146;28;20468;-77
2024/04/02 08:14:42;;;;;;;7.33;1.90;;;8.70;99.90;;;9.29;100.00;97380.16;5003911;28;20468;-77
2024/04/02 08:17:09;;;;;;;5.00;1.73;;;8.70;99.90;;;9.29;100.00;97392.38;5003349;28;20467;-77
2024/04/02 08:19:37;;;;;;;9.93;2.00;;;8.60;99.90;;;9.30;100.00;97388.78;5020522;28;20473;-77
2024/04/02 08:22:05;;;;;;;4.20;1.40;;;8.70;99.90;;;9.35;100.00;97389.81;5004598;28;20465;-77
2024/04/02 08:24:31;;;;;;;4.40;1.60;;;8.80;99.90;;;9.39;100.00;97398.84;5003378;28;20472;-78
2024/04/02 08:26:59;;;;;;;4.13;1.20;;;8.80;99.90;;;9.43;100.00;97394.84;5005628;28;20471;-77
2024/04/02 08:29:26;;;;;;;5.83;2.37;;;8.80;99.90;;;9.42;100.00;97395.03;5001939;28;20493;-79
2024/04/02 08:31:53;;;;;;;2.50;1.17;;;8.90;99.90;;;9.40;100.00;97390.03;5013166;28;20996;-79
2024/04/02 08:34:20;;;;;;;3.40;1.50;;;8.70;99.90;;;9.36;100.00;97394.03;5011511;28;20470;-78
2024/04/02 08:36:49;;;;;;;5.50;1.67;;;8.80;99.90;;;9.38;100.00;97401.66;4994925;28;20525;-78
2024/04/02 08:39:15;;;;;;;4.27;1.37;;;8.80;99.90;;;9.45;100.00;97397.25;4999967;28;20967;-79
2024/04/02 08:41:43;;;;;;;4.50;1.30;;;8.90;99.90;;;9.46;100.00;97394.47;4998214;28;21018;-78
2024/04/02 08:44:10;;;;;;;5.07;1.63;;;8.90;99.90;;;9.52;100.00;97398.09;4997268;28;20502;-78
2024/04/02 08:46:37;;;;;;;2.70;1.77;;;8.90;99.90;;;9.51;100.00;97399.88;4996685;28;20555;-77
2024/04/02 08:49:06;;;;;;;5.87;1.70;;;8.90;99.90;;;9.57;100.00;97403.53;5000711;28;20899;-77
2024/04/02 08:51:34;;;;;;;4.50;1.23;;;8.90;99.90;;;9.48;100.00;97402.88;4996455;28;20487;-78
2024/04/02 08:54:01;;;;;;;2.70;1.40;;;9.10;99.90;;;9.48;100.00;97408.09;5003567;28;20493;-77
2024/04/02 08:56:29;;;;;;;6.93;1.70;;;8.90;99.90;;;9.55;100.00;97408.13;5000267;28;20475;-77
2024/04/02 08:58:56;;;;;;;7.97;2.27;;;9.00;99.90;;;9.61;100.00;97417.81;5004037;28;20488;-78
2024/04/02 09:01:24;;;;;;;2.90;1.47;;;9.00;99.90;;;9.67;100.00;97421.44;4999616;28;20991;-77
2024/04/02 09:03:54;;;;;;;2.43;1.23;;;9.10;99.90;;;9.68;100.00;97417.81;5002684;28;20505;-77
2024/04/02 09:06:21;;;;;;;3.73;1.03;;;9.20;99.90;;;9.56;100.00;97421.00;5003203;28;20458;-77
2024/04/02 09:08:48;;;;;;;3.63;1.63;;;9.00;99.90;;;9.59;100.00;97428.44;5003159;28;20839;-78
2024/04/02 09:11:17;;;;;;;6.80;2.03;;;9.00;99.90;;;9.54;100.00;97433.41;5005139;28;20466;-77
2024/04/02 09:13:43;;;;;;;5.67;1.20;;;8.90;99.90;;;9.59;100.00;97431.03;4999797;28;21044;-77
2024/04/02 09:16:11;;;;;;;2.80;1.40;;;9.00;99.90;;;9.55;100.00;97435.03;5000523;28;20994;-77
2024/04/02 09:18:40;;;;;;;7.00;2.00;;;9.00;99.90;;;9.64;100.00;97433.06;4995510;28;20855;-77
2024/04/02 09:21:08;;;;;;;7.60;1.80;;;9.00;99.90;;;9.67;100.00;97431.88;5000194;28;20959;-77
2024/04/02 09:23:34;;;;;;;9.07;1.60;;;9.10;99.90;;;9.63;100.00;97426.22;5014318;28;20501;-77
2024/04/02 09:26:02;;;;;;;6.67;1.40;;;9.00;99.90;;;9.68;100.00;97438.72;5012539;28;20469;-78
2024/04/02 09:28:30;;;;;;;9.30;2.17;;;9.10;99.90;;;9.68;100.00;97418.63;4990175;28;20492;-78
2024/04/02 09:30:57;;;;;;;1.90;1.20;;;9.20;99.90;;;9.64;100.00;97433.06;4996803;28;20473;-78
2024/04/02 09:33:24;;;;;;;4.47;1.50;;;9.10;99.90;;;9.60;100.00;97432.66;4996038;28;20503;-78
2024/04/02 09:36:09;;;;;;;5.37;1.50;;;9.00;99.90;;;9.68;100.00;97430.88;4995905;28;20474;-78
2024/04/02 09:38:37;;;;;;;6.97;2.40;;;9.00;99.90;;;9.61;100.00;97436.84;4996930;28;20484;-78
2024/04/02 09:41:05;;;;;;;6.10;1.70;;;9.00;99.90;;;9.59;100.00;97436.25;4996968;28;20479;-78
2024/04/02 09:43:34;;;;;;;3.13;1.57;;;9.10;99.90;;;9.71;100.00;97438.31;4992030;28;20488;-78
2024/04/02 09:46:03;;;;;;;3.27;1.40;;;9.10;99.90;;;9.65;100.00;97433.88;4994283;28;20468;-78
2024/04/02 09:48:33;;;;;;;7.60;1.60;;;9.10;99.90;;;9.70;100.00;97442.72;4990209;28;21109;-82
2024/04/02 09:51:03;;;;;;;5.03;1.63;;;9.10;99.90;;;9.75;100.00;97434.31;4994451;28;21062;-77
2024/04/02 09:53:29;;;;;;;8.83;1.70;;;9.10;99.90;;;9.83;100.00;97431.50;5008406;28;20478;-82
2024/04/02 09:55:57;;;;;;;12.90;1.77;;;9.20;99.90;;;9.85;100.00;97445.19;5015569;28;20484;-77
2024/04/02 09:58:23;;;;;;;3.77;1.30;;;9.30;99.90;;;9.86;100.00;97446.75;5003735;28;20475;-78
2024/04/02 10:00:56;;;;;;;6.13;1.30;;;9.30;99.90;;;9.90;100.00;97446.19;5016869;28;20473;-77
2024/04/02 10:03:27;;;;;;;5.60;1.73;;;9.30;99.90;;;9.97;100.00;97443.59;5017684;28;20488;-78
2024/04/02 10:06:03;;;;;;;12.70;1.93;;;9.40;99.90;;;9.94;100.00;97450.00;5005030;28;20479;-77
2024/04/02 10:08:31;;;;;;;4.37;1.43;;;9.50;99.90;;;10.00;100.00;97448.41;5002541;28;20479;-77
2024/04/02 10:10:58;;;;;;;4.83;1.60;;;9.50;99.90;;;9.95;100.00;97453.44;4999579;28;20501;-78
2024/04/02 10:13:35;;;;;;;3.80;1.40;;;9.50;99.90;;;9.98;100.00;97445.22;4997194;28;20478;-78
2024/04/02 10:16:08;;;;;;;5.83;1.60;;;9.40;99.90;;;9.99;100.00;97455.47;5014076;28;20987;-78
2024/04/02 10:18:35;;;;;;;2.83;1.30;;;9.40;99.90;;;10.03;100.00;97468.94;5005255;28;20482;-78
2024/04/02 10:21:04;;;;;;;4.93;1.50;;;9.40;99.90;;;10.06;100.00;97468.53;5002007;28;20463;-78
2024/04/02 10:23:31;;;;;;;7.10;1.43;;;9.50;99.90;;;9.95;100.00;97471.72;5005471;28;20889;-78
2024/04/02 10:25:59;;;;;;;5.77;1.20;;;9.50;99.90;;;9.95;100.00;97479.56;5000934;28;20464;-78
2024/04/02 10:28:26;;;;;;;5.20;1.67;;;9.30;99.90;;;10.02;100.00;97483.00;5005008;28;20485;-78